»·PEaware :: N787FL KAVX-KFUL

N787FL :: KAVX-KFUL

FLIGHT INFORMATION

Flight Status: Arrived
Operator: Privately registered:
United States
More flights under this callsign
Pilot: Luis B. (14232)
Aircraft: CESSNA 172 SKYHAWK
(C172)
More flights by this aircraft type
Origin: KAVX Catalina
United States
Destination: KFUL Fullerton Mun
United States
More flights between these airports :: More routes between these airports
Route: SXC V21 SLI
File this flight plan on PilotEdge
Remarks:
Altitude:
(Current/Filed)
5,000ft
Speed:
(Current/Filed)
90kts
Departed: 22-Dec-17 05:10 PM
Arrived: 22-Dec-17 05:36 PM
Distance/Time
Traveled:
35nm/0:25
Distance/Time
To Go:
Arrived

Flight Plot

Page will automatically refresh every two minutes.

Flight plan parsing failed; only flown route is shown


Map Options




Map Legend


Flown Route
Filed Route
Departure Airport
Arrival Airport
Navaid (VOR, NDB)
Fix

Horizontal Profiles

Position Reports

Time Latitude Longitude Heading Altitude Ground
Speed
22-Dec-17 16:55 33.403292 -118.415955 44 1553ft 0kts
22-Dec-17 16:56 33.403292 -118.415955 44 1553ft 0kts
22-Dec-17 16:57 33.403292 -118.415955 44 1553ft 0kts
22-Dec-17 16:58 33.403292 -118.415955 44 1553ft 0kts
22-Dec-17 16:59 33.403292 -118.415955 44 1553ft 0kts
22-Dec-17 17:00 33.403292 -118.415955 44 1553ft 0kts
22-Dec-17 17:01 33.403292 -118.415955 44 1553ft 0kts
22-Dec-17 17:02 33.403292 -118.415955 44 1553ft 0kts
22-Dec-17 17:03 33.403292 -118.415955 44 1553ft 0kts
22-Dec-17 17:04 33.403292 -118.415955 44 1553ft 0kts
22-Dec-17 17:05 33.403292 -118.415955 44 1553ft 0kts
22-Dec-17 17:06 33.403292 -118.415955 44 1553ft 0kts
22-Dec-17 17:07 33.403949 -118.415051 18 1553ft 16kts
22-Dec-17 17:08 33.407181 -118.411376 34 1553ft 0kts
22-Dec-17 17:09 33.407182 -118.411376 34 1553ft 0kts
22-Dec-17 17:10 33.407181 -118.411376 34 1553ft 0kts
22-Dec-17 17:11 33.407181 -118.411376 34 1553ft 0kts
22-Dec-17 17:12 33.407181 -118.411376 34 1553ft 0kts
22-Dec-17 17:13 33.407181 -118.411376 34 1553ft 0kts
22-Dec-17 17:14 33.407181 -118.411376 34 1553ft 0kts
22-Dec-17 17:15 33.407287 -118.411380 324 1553ft 4kts
22-Dec-17 17:16 33.402458 -118.419884 235 1667ft 74kts
22-Dec-17 17:17 33.389195 -118.440788 237 2437ft 81kts
22-Dec-17 17:18 33.376454 -118.429902 74 3035ft 99kts
22-Dec-17 17:19 33.390291 -118.402217 24 3651ft 96kts
22-Dec-17 17:20 33.412612 -118.384566 33 4259ft 96kts
22-Dec-17 17:21 33.435101 -118.365295 31 4750ft 101kts
22-Dec-17 17:22 33.459047 -118.344190 32 4992ft 120kts
22-Dec-17 17:23 33.486257 -118.319630 33 4982ft 116kts
22-Dec-17 17:24 33.511418 -118.296721 32 4984ft 112kts
22-Dec-17 17:25 33.536403 -118.274859 29 4983ft 110kts
22-Dec-17 17:26 33.562043 -118.254969 23 4991ft 108kts
22-Dec-17 17:27 33.588033 -118.236202 27 4989ft 109kts
22-Dec-17 17:28 33.613079 -118.215853 30 4988ft 109kts
22-Dec-17 17:29 33.637766 -118.194604 31 4986ft 109kts
22-Dec-17 17:30 33.661845 -118.173256 31 4985ft 108kts
22-Dec-17 17:31 33.685977 -118.151534 32 4983ft 108kts
22-Dec-17 17:32 33.709948 -118.129813 32 4915ft 111kts
22-Dec-17 17:33 33.733554 -118.106921 37 4338ft 108kts
22-Dec-17 17:34 33.753872 -118.080221 35 3952ft 110kts
22-Dec-17 17:35 33.776525 -118.055918 38 3956ft 109kts
22-Dec-17 17:36 33.799894 -118.032563 38 3713ft 120kts
22-Dec-17 17:37 33.824010 -118.010740 32 3290ft 113kts
22-Dec-17 17:38 33.851046 -117.990547 30 2149ft 110kts
22-Dec-17 17:39 33.862348 -117.959925 81 1094ft 97kts
22-Dec-17 17:40 33.874345 -117.953691 282 705ft 72kts
22-Dec-17 17:41 33.872802 -117.975668 260 110ft 62kts
22-Dec-17 17:42 33.871378 -117.981113 131 93ft 0kts
22-Dec-17 17:43 33.870666 -117.979942 20 93ft 6kts
22-Dec-17 17:44 33.870960 -117.980216 261 93ft 0kts
22-Dec-17 17:49 33.870960 -117.980215 254 93ft 0kts
22-Dec-17 17:50 33.870960 -117.980215 254 93ft 0kts

Navigation Log

Ident Type
Flight plan parsing failed, navigation log unavailable